Time;durP1;ratioP1;P1;durP2;ratioP2;P2;SDS_P1;SDS_P2;PMS_P1;PMS_P2;Temp;Humidity;BMP_temperature;BMP_pressure;BME280_temperature;BME280_humidity;BME280_pressure;Samples;Min_cycle;Max_cycle;Signal;HPM_P1;HPM_P2
2022/04/04 00:01:05;;;;;;;14.45;3.00;;;;;;;10.24;59.07;100657.22;4833644;29;119748;-85
2022/04/04 00:04:01;;;;;;;;;;;;;;;;;;;;;
2022/04/04 00:07:07;;;;;;;;;;;;;;;;;;;;;
2022/04/04 00:10:36;;;;;;;12.10;3.40;;;;;;;10.20;59.48;100622.91;4825119;29;121637;-86
2022/04/04 00:13:37;;;;;;;16.20;3.30;;;;;;;10.14;60.14;100618.00;4802303;29;120617;-85
2022/04/04 00:16:24;;;;;;;8.30;2.60;;;;;;;10.37;60.10;100641.44;4805788;29;122307;-85
2022/04/04 00:19:34;;;;;;;9.45;2.58;;;;;;;10.12;60.14;100611.44;4809677;28;122977;-87
2022/04/04 00:22:20;;;;;;;7.28;2.20;;;;;;;10.13;60.08;100610.22;4817060;29;120974;-84
2022/04/04 00:24:50;;;;;;;9.90;3.22;;;;;;;10.29;60.67;100642.94;4812884;29;122637;-85
2022/04/04 00:27:16;;;;;;;8.40;2.88;;;;;;;10.13;60.38;100618.44;4817197;29;122103;-84
2022/04/04 00:29:57;;;;;;;11.55;4.53;;;;;;;9.93;60.07;100599.59;4813828;29;122871;-85
2022/04/04 00:32:43;;;;;;;11.40;3.70;;;;;;;9.63;58.89;100549.03;4814608;29;122971;-86
2022/04/04 00:35:30;;;;;;;6.97;2.92;;;;;;;9.51;58.68;100541.69;4830835;28;121337;-85
2022/04/04 00:38:10;;;;;;;8.60;3.17;;;;;;;9.76;58.44;100568.91;4831947;29;122427;-85
2022/04/04 00:41:10;;;;;;;12.95;6.30;;;;;;;9.51;59.27;100530.72;4823758;29;120368;-85
2022/04/04 00:44:36;;;;;;;;;;;;;;;;;;;;;
2022/04/04 00:47:30;;;;;;;14.38;6.32;;;;;;;9.40;58.94;100505.69;4839611;28;119591;-86
2022/04/04 00:50:17;;;;;;;15.10;5.27;;;;;;;9.42;60.30;100500.53;4801965;29;123914;-84
2022/04/04 00:53:13;;;;;;;32.30;12.32;;;;;;;9.35;59.60;100487.09;4819853;29;121267;-85
2022/04/04 00:56:11;;;;;;;11.25;3.00;;;;;;;9.39;59.18;100483.03;4801646;29;121581;-85
2022/04/04 00:59:05;;;;;;;14.10;3.22;;;;;;;9.62;59.21;100520.13;4808329;29;120620;-84
2022/04/04 01:02:21;;;;;;;15.68;3.38;;;;;;;9.86;59.32;100539.59;4799533;29;120671;-86
2022/04/04 01:05:10;;;;;;;;;;;;;;;;;;;;;
2022/04/04 01:07:59;;;;;;;11.27;3.00;;;;;;;9.92;59.22;100537.78;4833730;29;119629;-84
2022/04/04 01:10:38;;;;;;;;;;;;;;;;;;;;;
2022/04/04 01:13:27;;;;;;;14.27;3.17;;;;;;;9.82;59.18;100512.34;4802858;29;121618;-85
2022/04/04 01:16:45;;;;;;;11.40;2.97;;;;;;;9.52;59.28;100461.81;4826429;29;119967;-85
2022/04/04 01:19:38;;;;;;;;;;;;;;;;;;;;;
2022/04/04 01:22:47;;;;;;;;;;;;;;;;;;;;;
2022/04/04 01:25:36;;;;;;;21.90;6.68;;;;;;;9.67;60.62;100472.22;4814644;29;122533;-87
2022/04/04 01:28:42;;;;;;;14.25;3.97;;;;;;;9.65;60.50;100464.47;4814218;28;123270;-85
2022/04/04 01:31:21;;;;;;;14.95;2.80;;;;;;;9.82;60.06;100465.78;4832521;29;120005;-85
2022/04/04 01:34:02;;;;;;;;;;;;;;;;;;;;;
2022/04/04 01:36:52;;;;;;;15.77;3.00;;;;;;;9.48;58.88;100392.00;4802459;29;122837;-85
2022/04/04 01:39:48;;;;;;;16.55;4.38;;;;;;;9.49;59.43;100379.81;4818489;29;119931;-86
2022/04/04 01:42:27;;;;;;;;;;;;;;;;;;;;;
2022/04/04 01:48:10;;;;;;;18.08;4.47;;;;;;;10.06;58.94;100444.09;4832171;28;121761;-85
2022/04/04 01:51:14;;;;;;;13.48;3.33;;;;;;;9.54;59.31;100354.59;4812741;29;123385;-85
2022/04/04 01:54:02;;;;;;;;;;;;;;;;;;;;;
2022/04/04 01:56:44;;;;;;;13.95;2.95;;;;;;;9.76;59.23;100374.44;4804324;29;121956;-85
2022/04/04 01:59:36;;;;;;;20.45;3.13;;;;;;;9.50;59.60;100332.06;4828956;28;120327;-86
2022/04/04 02:02:18;;;;;;;13.00;2.55;;;;;;;9.62;58.69;100333.91;4840118;28;119884;-86
2022/04/04 02:05:26;;;;;;;16.10;3.55;;;;;;;9.94;59.01;100365.53;4823102;28;120636;-85
2022/04/04 02:07:52;;;;;;;13.35;3.25;;;;;;;10.10;59.09;100378.19;4840272;29;120407;-85
2022/04/04 02:10:21;;;;;;;13.73;3.75;;;;;;;10.08;59.25;100375.13;4821109;29;122213;-86
2022/04/04 02:12:49;;;;;;;12.07;3.17;;;;;;;10.01;61.26;100356.25;4835241;29;120394;-85
2022/04/04 02:15:22;;;;;;;13.90;3.80;;;;;;;10.10;60.62;100350.78;4807791;29;120310;-86
2022/04/04 02:17:53;;;;;;;15.73;3.30;;;;;;;9.90;59.20;100320.28;4806506;29;122349;-86
2022/04/04 02:20:22;;;;;;;14.20;3.20;;;;;;;9.88;58.85;100306.28;4816757;28;120712;-86
2022/04/04 02:23:20;;;;;;;19.05;4.65;;;;;;;10.03;59.01;100318.94;4823319;29;120264;-85
2022/04/04 02:26:18;;;;;;;;;;;;;;;;;;;;;
2022/04/04 02:29:28;;;;;;;16.13;4.05;;;;;;;10.21;58.22;100312.75;4788222;29;121608;-86
2022/04/04 02:32:13;;;;;;;20.80;4.90;;;;;;;9.86;58.58;100251.97;4809502;29;119778;-87
2022/04/04 02:34:51;;;;;;;17.63;4.30;;;;;;;10.03;58.33;100271.59;4829725;28;122985;-86
2022/04/04 02:37:28;;;;;;;16.55;4.57;;;;;;;10.06;59.19;100267.94;4803815;29;119580;-85
2022/04/04 02:40:44;;;;;;;;;;;;;;;;;;;;;
2022/04/04 02:43:17;;;;;;;18.95;4.47;;;;;;;9.74;58.75;100203.56;4803337;29;122925;-86
2022/04/04 02:46:16;;;;;;;15.18;3.30;;;;;;;9.96;59.34;100209.66;4806154;29;119641;-86
2022/04/04 02:48:55;;;;;;;20.70;4.85;;;;;;;9.93;58.91;100201.56;4790459;29;121698;-86
2022/04/04 02:52:06;;;;;;;22.30;4.05;;;;;;;9.92;58.53;100180.88;4807474;29;122251;-86
2022/04/04 02:54:52;;;;;;;20.48;4.68;;;;;;;10.24;59.38;100228.84;4785783;29;120631;-86
2022/04/04 02:57:40;;;;;;;;;;;;;;;;;;;;;
2022/04/04 03:03:34;;;;;;;23.13;5.47;;;;;;;9.88;60.05;100153.63;4830809;29;122455;-85
2022/04/04 03:06:40;;;;;;;19.63;4.97;;;;;;;9.96;60.08;100160.34;4819260;28;121032;-86
2022/04/04 03:09:48;;;;;;;23.77;5.45;;;;;;;9.76;60.23;100125.22;4785411;29;119528;-86
2022/04/04 03:13:11;;;;;;;21.63;5.80;;;;;;;9.82;60.47;100123.38;4804947;29;120075;-85
2022/04/04 03:15:40;;;;;;;18.10;5.80;;;;;;;9.89;59.68;100107.84;4819908;29;120021;-86
2022/04/04 03:18:26;;;;;;;19.45;5.47;;;;;;;10.15;61.14;100139.13;4802310;29;119676;-86
2022/04/04 03:20:55;;;;;;;16.55;5.78;;;;;;;10.35;59.99;100166.84;4808528;29;122440;-85
2022/04/04 03:23:49;;;;;;;17.90;5.78;;;;;;;10.13;61.53;100130.63;4839431;28;120646;-85
2022/04/04 03:26:50;;;;;;;;;;;;;;;10.31;60.58;100162.75;4816623;29;121265;-84
2022/04/04 03:29:37;;;;;;;17.95;6.18;;;;;;;10.21;61.41;100142.06;4820270;29;122640;-86
2022/04/04 03:32:06;;;;;;;23.08;7.15;;;;;;;10.02;60.12;100103.72;4819254;29;119906;-86
2022/04/04 03:34:36;;;;;;;19.48;6.20;;;;;;;10.14;60.44;100126.66;4813938;29;122189;-85
2022/04/04 03:37:16;;;;;;;20.48;6.70;;;;;;;9.97;60.55;100089.88;4835750;29;122809;-85
2022/04/04 03:40:12;;;;;;;;;;;;;;;10.15;60.19;100117.22;4789286;29;120663;-85
2022/04/04 03:42:55;;;;;;;20.08;6.75;;;;;;;9.79;60.30;100066.78;4834793;29;119916;-85
2022/04/04 03:45:24;;;;;;;18.40;6.57;;;;;;;10.07;60.56;100096.84;4820286;29;123631;-86
2022/04/04 03:47:50;;;;;;;22.15;7.13;;;;;;;9.90;61.01;100057.31;4825952;29;121658;-85
2022/04/04 03:50:23;;;;;;;14.93;6.05;;;;;;;10.05;60.90;100080.09;4805122;29;123105;-85
2022/04/04 03:52:53;;;;;;;23.40;7.82;;;;;;;9.95;61.06;100071.16;4831876;29;119663;-85
2022/04/04 03:55:24;;;;;;;21.10;6.70;;;;;;;9.90;61.86;100047.09;4803913;29;122381;-85
2022/04/04 03:57:52;;;;;;;19.08;6.68;;;;;;;9.80;61.38;100019.00;4803143;29;123980;-85
2022/04/04 04:00:29;;;;;;;25.50;7.68;;;;;;;9.72;61.20;100015.06;4819567;29;120395;-85
2022/04/04 04:02:55;;;;;;;24.17;7.85;;;;;;;9.88;62.54;100029.63;4804532;29;122275;-86
2022/04/04 04:05:35;;;;;;;23.30;7.50;;;;;;;9.64;61.29;99991.94;4819483;29;123285;-85
2022/04/04 04:08:11;;;;;;;;;;;;;;;;;;;;;
2022/04/04 04:10:44;;;;;;;27.50;8.10;;;;;;;9.56;61.79;99977.06;4824403;28;123091;-86
2022/04/04 04:13:15;;;;;;;22.05;8.02;;;;;;;9.79;62.47;99987.34;4792319;29;120018;-85
2022/04/04 04:15:43;;;;;;;24.55;9.00;;;;;;;9.56;62.38;99944.22;4833076;29;120105;-86
2022/04/04 04:18:08;;;;;;;26.00;8.75;;;;;;;9.61;62.59;99946.31;4803943;29;123018;-85
2022/04/04 04:20:43;;;;;;;18.25;9.05;;;;;;;9.58;62.39;99933.56;4804673;29;119973;-85
2022/04/04 04:23:11;;;;;;;25.75;11.25;;;;;;;9.58;62.84;99930.81;4807053;29;121552;-86
2022/04/04 04:25:39;;;;;;;24.92;11.40;;;;;;;9.51;63.06;99909.25;4805723;29;123484;-86
2022/04/04 04:28:10;;;;;;;24.20;11.60;;;;;;;9.69;62.86;99938.53;4808858;29;119591;-86
2022/04/04 04:30:47;;;;;;;23.50;12.23;;;;;;;9.54;63.68;99922.00;4813683;29;121177;-85
2022/04/04 04:33:30;;;;;;;25.55;13.40;;;;;;;9.30;64.20;99897.28;4813005;29;119494;-85
2022/04/04 04:36:43;;;;;;;27.30;13.60;;;;;;;9.32;64.22;99877.69;4819292;29;120113;-86
2022/04/04 04:39:28;;;;;;;;;;;;;;;;;;;;;
2022/04/04 04:42:27;;;;;;;28.17;14.48;;;;;;;9.34;63.87;99859.56;4819019;29;120264;-85
2022/04/04 04:45:21;;;;;;;23.45;13.85;;;;;;;9.13;63.67;99820.25;4815909;29;120007;-86
2022/04/04 04:48:27;;;;;;;27.95;15.27;;;;;;;9.41;64.20;99853.00;4806778;29;120589;-86
2022/04/04 04:51:13;;;;;;;27.48;15.25;;;;;;;9.25;64.47;99828.75;4816445;29;119738;-87
2022/04/04 04:54:42;;;;;;;;;;;;;;;;;;;;;
2022/04/04 04:57:18;;;;;;;24.20;15.30;;;;;;;8.99;64.79;99768.16;4813481;29;122738;-84
2022/04/04 04:59:47;;;;;;;25.67;14.88;;;;;;;9.46;65.66;99833.22;4802563;29;121799;-86
2022/04/04 05:02:23;;;;;;;26.83;14.60;;;;;;;9.31;65.57;99805.75;4818826;29;120525;-84
2022/04/04 05:04:51;;;;;;;26.90;15.90;;;;;;;9.41;64.96;99815.44;4803480;29;120021;-85
2022/04/04 05:07:20;;;;;;;24.45;15.85;;;;;;;8.80;64.65;99727.22;4834694;28;119964;-86
2022/04/04 05:10:13;;;;;;;25.33;16.25;;;;;;;8.99;65.44;99758.00;4804881;29;121727;-87
2022/04/04 05:13:38;;;;;;;20.73;16.00;;;;;;;9.28;65.84;99795.75;4819485;29;119864;-87
2022/04/04 05:16:45;;;;;;;;;;;;;;;;;;;;;
2022/04/04 05:22:38;;;;;;;30.53;18.83;;;;;;;8.75;66.98;99708.69;4829019;28;121026;-85
2022/04/04 05:25:07;;;;;;;24.50;16.13;;;;;;;9.20;67.28;99757.00;4802951;29;122391;-86
2022/04/04 05:27:53;;;;;;;24.63;18.02;;;;;;;8.99;67.09;99703.31;4822878;29;120055;-85
2022/04/04 05:30:31;;;;;;;29.88;20.98;;;;;;;9.13;66.75;99719.03;4809464;29;121042;-87
2022/04/04 05:33:05;;;;;;;30.45;20.30;;;;;;;8.79;67.37;99675.75;4819339;29;123458;-85
2022/04/04 05:36:26;;;;;;;;;;;;;;;;;;;;;
2022/04/04 05:39:23;;;;;;;32.50;22.42;;;;;;;8.95;67.11;99680.81;4819462;29;122040;-86
2022/04/04 05:42:03;;;;;;;;;;;;;;;;;;;;;
2022/04/04 05:44:45;;;;;;;31.83;22.70;;;;;;;8.61;66.46;99628.13;4825737;29;119757;-86
2022/04/04 05:47:30;;;;;;;32.42;23.80;;;;;;;8.90;67.93;99678.72;4824717;29;120418;-86
2022/04/04 05:49:59;;;;;;;37.05;24.73;;;;;;;8.83;67.66;99655.22;4789057;29;119763;-87
2022/04/04 05:53:00;;;;;;;33.25;23.90;;;;;;;9.11;67.88;99680.44;4820599;29;119962;-88
2022/04/04 05:56:27;;;;;;;;;;;;;;;;;;;;;
2022/04/04 05:59:14;;;;;;;30.30;20.50;;;;;;;8.99;69.96;99647.81;4836314;29;119494;-86
2022/04/04 06:02:04;;;;;;;31.27;20.48;;;;;;;8.77;69.27;99598.91;4805583;29;122128;-87
2022/04/04 06:05:08;;;;;;;28.13;18.08;;;;;;;9.07;69.21;99621.66;4797593;29;121045;-88
2022/04/04 06:07:37;;;;;;;22.65;15.93;;;;;;;9.28;68.31;99626.09;4837162;29;119508;-86
2022/04/04 06:10:53;;;;;;;19.67;13.10;;;;;;;9.33;68.44;99641.09;4796114;29;120011;-87
2022/04/04 06:13:34;;;;;;;17.98;13.05;;;;;;;9.37;68.80;99649.88;4803485;29;120842;-87
2022/04/04 06:16:50;;;;;;;19.75;11.98;;;;;;;8.81;69.19;99555.72;4811369;29;119835;-85
2022/04/04 06:19:49;;;;;;;;;;;;;;;;;;;;;
2022/04/04 06:22:52;;;;;;;19.13;11.60;;;;;;;9.03;69.26;99572.59;4797325;28;119995;-85
2022/04/04 06:25:43;;;;;;;17.48;9.90;;;;;;;9.40;69.43;99600.44;4836514;28;121945;-84
2022/04/04 06:28:31;;;;;;;17.85;9.70;;;;;;;8.87;70.05;99532.00;4823082;29;120112;-84
2022/04/04 06:31:11;;;;;;;17.98;10.07;;;;;;;9.03;69.56;99534.31;4800685;28;120337;-86
2022/04/04 06:33:49;;;;;;;;;;;;;;;;;;;;;
2022/04/04 06:36:39;;;;;;;21.00;8.90;;;;;;;8.95;69.59;99494.09;4821708;29;122775;-85
2022/04/04 06:39:07;;;;;;;19.23;9.45;;;;;;;9.45;68.83;99557.97;4835205;29;119899;-87
2022/04/04 06:41:52;;;;;;;18.25;9.02;;;;;;;8.86;69.54;99482.00;4821386;29;122558;-87
2022/04/04 06:44:32;;;;;;;;;;;;;;;;;;;;;
2022/04/04 06:47:31;;;;;;;;;;;;;;;;;;;;;
2022/04/04 06:50:22;;;;;;;14.40;5.72;;;;;;;9.00;69.42;99477.06;4821570;28;123325;-85
2022/04/04 06:53:32;;;;;;;;;;;;;;;;;;;;;
2022/04/04 06:56:19;;;;;;;13.30;6.43;;;;;;;8.86;69.95;99437.50;4818520;28;122248;-89
2022/04/04 06:59:09;;;;;;;20.08;6.57;;;;;;;8.87;69.59;99417.91;4802562;28;121724;-84
2022/04/04 07:01:55;;;;;;;20.88;7.55;;;;;;;9.15;69.13;99458.69;4841643;28;119825;-85
2022/04/04 07:04:51;;;;;;;;;;;;;;;;;;;;;
2022/04/04 07:08:13;;;;;;;;;;;;;;;;;;;;;
2022/04/04 07:11:08;;;;;;;;;;;;;;;;;;;;;
2022/04/04 07:13:47;;;;;;;;;;;;;;;;;;;;;
2022/04/04 07:16:19;;;;;;;14.93;4.28;;;;;;;8.93;69.83;99339.44;4839574;28;119409;-85
2022/04/04 07:18:54;;;;;;;16.38;4.93;;;;;;;9.23;70.24;99405.88;4806926;28;121869;-86
2022/04/04 07:22:00;;;;;;;11.20;3.08;;;;;;;9.21;70.06;99391.88;4808823;28;121332;-84
2022/04/04 07:24:57;;;;;;;10.27;2.97;;;;;;;9.41;69.37;99437.00;4826487;28;119866;-84
2022/04/04 07:27:45;;;;;;;12.10;2.75;;;;;;;8.85;69.15;99332.09;4817428;28;121805;-84
2022/04/04 07:30:54;;;;;;;12.52;3.08;;;;;;;9.22;69.83;99393.41;4824144;28;120127;-88
2022/04/04 07:33:33;;;;;;;;;;;;;;;;;;;;;
2022/04/04 07:36:42;;;;;;;12.38;2.90;;;;;;;8.89;69.61;99327.19;4840980;28;120133;-84
2022/04/04 07:39:35;;;;;;;9.35;2.78;;;;;;;8.91;69.09;99317.28;4824064;28;120180;-85
2022/04/04 07:42:16;;;;;;;;;;;;;;;;;;;;;
2022/04/04 07:44:55;;;;;;;;;;;;;;;;;;;;;
2022/04/04 07:47:49;;;;;;;9.55;2.97;;;;;;;9.13;69.77;99348.97;4831031;28;119751;-87
2022/04/04 07:50:59;;;;;;;;;;;;;;;;;;;;;
2022/04/04 07:53:31;;;;;;;8.93;3.17;;;;;;;9.42;70.99;99350.94;4823042;28;123530;-85
2022/04/04 07:56:47;;;;;;;16.27;3.50;;;;;;;9.28;70.06;99297.00;4789766;29;120814;-85
2022/04/04 08:00:19;;;;;;;;;;;;;;;;;;;;;
2022/04/04 08:03:04;;;;;;;13.23;3.13;;;;;;;9.04;70.10;99239.69;4834134;28;120320;-85
2022/04/04 08:06:03;;;;;;;9.27;2.97;;;;;;;9.21;69.54;99257.84;4812006;29;120041;-87
2022/04/04 08:08:56;;;;;;;14.15;3.33;;;;;;;9.12;69.21;99244.28;4800698;28;121993;-85
2022/04/04 08:12:16;;;;;;;19.38;4.03;;;;;;;8.98;69.61;99236.09;4809610;28;119676;-85
2022/04/04 08:15:16;;;;;;;15.15;3.17;;;;;;;9.23;70.58;99262.84;4799450;28;120085;-88
2022/04/04 08:18:10;;;;;;;;;;;;;;;;;;;;;
2022/04/04 08:20:57;;;;;;;11.73;3.35;;;;;;;9.14;69.92;99222.69;4834848;28;119786;-85
2022/04/04 08:23:33;;;;;;;14.15;3.03;;;;;;;8.86;68.91;99186.72;4822661;28;123495;-85
2022/04/04 08:26:14;;;;;;;16.08;3.90;;;;;;;8.73;69.46;99175.31;4809857;28;119950;-86
2022/04/04 08:29:14;;;;;;;;;;;;;;;;;;;;;
2022/04/04 08:32:06;;;;;;;14.60;3.65;;;;;;;8.92;70.82;99190.28;4832452;28;123560;-85
2022/04/04 08:35:05;;;;;;;;;;;;;;;;;;;;;
2022/04/04 08:37:45;;;;;;;17.90;3.88;;;;;;;8.95;71.12;99169.44;4818095;28;122620;-85
2022/04/04 08:40:51;;;;;;;;;;;;;;;9.35;69.91;99198.09;4823603;28;121114;-86
2022/04/04 08:43:30;;;;;;;;;;;;;;;;;;;;;
2022/04/04 08:46:47;;;;;;;;;;;;;;;;;;;;;
2022/04/04 08:49:29;;;;;;;;;;;;;;;;;;;;;
2022/04/04 08:52:29;;;;;;;13.85;3.65;;;;;;;9.08;71.20;99137.06;4815055;29;121949;-86
2022/04/04 08:55:43;;;;;;;;;;;;;;;;;;;;;
2022/04/04 08:58:43;;;;;;;13.52;3.92;;;;;;;8.86;71.59;99093.00;4809439;28;120200;-86
2022/04/04 09:01:25;;;;;;;;;;;;;;;;;;;;;
2022/04/04 09:04:45;;;;;;;;;;;;;;;;;;;;;
2022/04/04 09:07:18;;;;;;;12.32;4.22;;;;;;;8.79;72.13;99041.47;4810596;28;120209;-85
2022/04/04 09:10:25;;;;;;;;;;;;;;;;;;;;;
2022/04/04 09:13:34;;;;;;;16.85;4.05;;;;;;;8.87;72.51;99017.97;4812316;29;120557;-87
2022/04/04 09:17:00;;;;;;;;;;;;;;;;;;;;;
2022/04/04 09:19:36;;;;;;;21.88;5.35;;;;;;;9.05;72.04;99016.94;4816413;28;120978;-84
2022/04/04 09:22:23;;;;;;;22.13;5.30;;;;;;;8.97;72.08;99002.16;4806698;28;120085;-86
2022/04/04 09:25:03;;;;;;;26.40;5.05;;;;;;;9.23;71.51;99022.88;4815781;29;122094;-86
2022/04/04 09:27:39;;;;;;;20.05;5.00;;;;;;;9.10;72.20;99008.78;4829536;28;120625;-85
2022/04/04 09:30:29;;;;;;;24.95;5.20;;;;;;;9.50;72.75;99023.66;4806911;29;120734;-87
2022/04/04 09:33:43;;;;;;;20.02;5.28;;;;;;;9.59;73.10;99037.16;4821113;28;121395;-91
2022/04/04 09:36:19;;;;;;;19.75;5.60;;;;;;;9.69;72.44;99008.38;4819617;29;123415;-86
2022/04/04 09:39:11;;;;;;;;;;;;;;;;;;;;;
2022/04/04 09:42:32;;;;;;;;;;;;;;;;;;;;;
2022/04/04 09:45:41;;;;;;;;;;;;;;;9.92;72.35;99012.06;4808920;29;120335;-85
2022/04/04 09:48:47;;;;;;;;;;;;;;;;;;;;;
2022/04/04 09:51:42;;;;;;;23.55;5.93;;;;;;;9.62;72.12;98948.59;4828327;28;120232;-86
2022/04/04 09:54:20;;;;;;;22.65;5.28;;;;;;;9.53;72.05;98900.25;4800584;28;120869;-85
2022/04/04 09:57:03;;;;;;;;;;;;;;;;;;;;;
2022/04/04 10:00:06;;;;;;;;;;;;;;;;;;;;;
2022/04/04 10:03:17;;;;;;;;;;;;;;;;;;;;;
2022/04/04 10:06:25;;;;;;;17.70;5.38;;;;;;;9.65;72.68;98878.44;4817006;29;123126;-85
2022/04/04 10:09:07;;;;;;;23.55;5.35;;;;;;;9.69;72.74;98868.00;4817577;29;120161;-86
2022/04/04 10:11:43;;;;;;;12.70;4.32;;;;;;;9.90;73.43;98885.81;4816960;29;121927;-83
2022/04/04 10:14:30;;;;;;;17.95;4.35;;;;;;;10.17;72.72;98931.03;4834488;28;120017;-85
2022/04/04 10:17:23;;;;;;;22.42;4.80;;;;;;;10.10;73.48;98909.59;4813615;28;120475;-86
2022/04/04 10:20:16;;;;;;;18.43;4.37;;;;;;;10.12;73.57;98893.41;4813810;29;122202;-86
2022/04/04 10:23:15;;;;;;;16.58;3.85;;;;;;;9.92;73.36;98828.56;4810035;28;120294;-86
2022/04/04 10:26:01;;;;;;;18.65;3.70;;;;;;;10.31;73.61;98882.84;4810732;29;120274;-85
2022/04/04 10:29:08;;;;;;;;;;;;;;;;;;;;;
2022/04/04 10:32:17;;;;;;;;;;;;;;;;;;;;;
2022/04/04 10:39:11;;;;;;;12.23;3.60;;;;;;;10.45;72.75;98846.28;4819071;29;124486;-86
2022/04/04 10:42:37;;;;;;;;;;;;;;;;;;;;;
2022/04/04 10:45:15;;;;;;;14.32;3.40;;;;;;;10.56;72.37;98856.53;4825095;28;122404;-88
2022/04/04 10:48:13;;;;;;;;;;;;;;;;;;;;;
2022/04/04 10:50:42;;;;;;;12.60;3.28;;;;;;;10.75;73.43;98857.56;4796060;29;120353;-85
2022/04/04 10:54:04;;;;;;;;;;;;;;;;;;;;;
2022/04/04 10:56:47;;;;;;;14.73;2.90;;;;;;;10.67;73.67;98823.66;4821894;28;120191;-85
2022/04/04 11:00:19;;;;;;;;;;;;;;;;;;;;;
2022/04/04 11:03:13;;;;;;;11.65;3.20;;;;;;;10.53;73.81;98767.06;4824250;28;124132;-84
2022/04/04 11:09:50;;;;;;;14.05;2.78;;;;;;;10.75;73.35;98753.38;4805313;28;120102;-84
2022/04/04 11:13:15;;;;;;;;;;;;;;;;;;;;;
2022/04/04 11:16:17;;;;;;;10.18;2.83;;;;;;;11.20;73.28;98816.47;4819351;28;120309;-86
2022/04/04 11:19:39;;;;;;;;;;;;;;;;;;;;;
2022/04/04 11:22:18;;;;;;;11.25;2.90;;;;;;;11.04;73.02;98752.13;4808097;28;123675;-84
2022/04/04 11:25:44;;;;;;;7.15;1.70;;;;;;;11.45;72.85;98812.72;4796217;29;121756;-84
2022/04/04 11:28:38;;;;;;;10.50;2.20;;;;;;;11.00;72.39;98724.19;4801437;28;121547;-85
2022/04/04 11:31:31;;;;;;;;;;;;;;;;;;;;;
2022/04/04 11:34:12;;;;;;;;;;;;;;;;;;;;;
2022/04/04 11:37:30;;;;;;;;;;;;;;;;;;;;;
2022/04/04 11:40:45;;;;;;;;;;;;;;;;;;;;;
2022/04/04 11:43:36;;;;;;;6.97;2.35;;;;;;;11.36;72.81;98706.69;4830927;28;122628;-84
2022/04/04 11:46:14;;;;;;;6.80;2.25;;;;;;;11.71;73.23;98751.25;4828978;29;120196;-84
2022/04/04 11:49:00;;;;;;;5.72;2.00;;;;;;;11.83;73.40;98767.25;4819845;29;120463;-84
2022/04/04 11:51:49;;;;;;;4.45;1.75;;;;;;;11.62;72.88;98706.38;4830437;28;120680;-83
2022/04/04 11:55:10;;;;;;;;;;;;;;;;;;;;;
2022/04/04 11:58:14;;;;;;;5.93;1.63;;;;;;;11.84;72.37;98713.06;4831549;28;121845;-85
2022/04/04 12:00:55;;;;;;;;;;;;;;;;;;;;;
2022/04/04 12:03:34;;;;;;;;;;;;;;;;;;;;;
2022/04/04 12:06:33;;;;;;;;;;;;;;;;;;;;;
2022/04/04 12:09:13;;;;;;;4.95;1.25;;;;;;;11.91;71.90;98691.28;4827055;29;121749;-84
2022/04/04 12:11:57;;;;;;;;;;;;;;;;;;;;;
2022/04/04 12:14:55;;;;;;;3.45;1.38;;;;;;;12.39;71.19;98733.97;4821707;28;122430;-84
2022/04/04 12:17:25;;;;;;;5.97;1.90;;;;;;;12.52;71.57;98744.38;4796181;29;119970;-83
2022/04/04 12:20:42;;;;;;;5.07;1.70;;;;;;;12.43;71.33;98708.97;4815266;29;122318;-83
2022/04/04 12:26:15;;;;;;;4.25;1.30;;;;;;;12.79;71.52;98740.72;4797769;29;120412;-83
2022/04/04 12:28:52;;;;;;;7.05;2.10;;;;;;;12.78;71.26;98732.97;4811550;29;121769;-83
2022/04/04 12:31:25;;;;;;;5.70;1.83;;;;;;;12.96;70.69;98723.31;4827779;29;120207;-84
2022/04/04 12:34:02;;;;;;;5.63;2.28;;;;;;;12.95;70.32;98719.81;4790031;29;120540;-84
2022/04/04 12:36:38;;;;;;;6.30;1.92;;;;;;;12.90;70.71;98737.88;4812473;29;119750;-82
2022/04/04 12:39:27;;;;;;;6.32;1.90;;;;;;;12.97;70.90;98741.31;4815423;29;123129;-82
2022/04/04 12:41:58;;;;;;;7.57;2.35;;;;;;;12.57;70.38;98680.38;4797426;29;122237;-83
2022/04/04 12:44:30;;;;;;;10.38;2.08;;;;;;;13.00;70.78;98723.75;4811101;28;124229;-82
2022/04/04 12:47:11;;;;;;;8.27;2.35;;;;;;;12.93;70.58;98711.31;4796877;29;121126;-82
2022/04/04 12:49:48;;;;;;;10.10;3.05;;;;;;;13.11;70.55;98715.44;4828058;28;122268;-82
2022/04/04 12:52:16;;;;;;;7.53;2.13;;;;;;;13.11;70.76;98707.16;4797506;28;123224;-83
2022/04/04 12:54:49;;;;;;;11.10;3.55;;;;;;;12.97;69.71;98683.53;4796629;29;119966;-82
2022/04/04 12:57:44;;;;;;;12.77;3.60;;;;;;;12.77;70.07;98660.69;4786417;29;122217;-83
2022/04/04 13:00:55;;;;;;;;;;;;;;;;;;;;;
2022/04/04 13:04:27;;;;;;;19.98;4.30;;;;;;;12.82;69.30;98610.38;4831536;28;119706;-82
2022/04/04 13:07:35;;;;;;;;;;;;;;;;;;;;;
2022/04/04 13:10:41;;;;;;;20.77;4.97;;;;;;;13.30;68.68;98691.50;4813357;29;121925;-82
2022/04/04 13:13:36;;;;;;;20.75;5.18;;;;;;;12.99;68.84;98647.97;4810465;28;120750;-83
2022/04/04 13:16:05;;;;;;;26.45;5.18;;;;;;;13.18;68.68;98674.34;4827656;29;119955;-84
2022/04/04 13:18:42;;;;;;;;;;;;;;;;;;;;;
2022/04/04 13:21:10;;;;;;;19.90;4.70;;;;;;;13.31;69.40;98692.97;4810854;28;122005;-84
2022/04/04 13:24:19;;;;;;;;;;;;;;;;;;;;;
2022/04/04 13:27:13;;;;;;;22.83;5.03;;;;;;;13.00;69.17;98632.97;4805741;29;120059;-84
2022/04/04 13:30:25;;;;;;;;;;;;;;;;;;;;;
2022/04/04 13:32:51;;;;;;;23.88;4.75;;;;;;;13.29;68.34;98665.22;4810607;29;119792;-85
2022/04/04 13:35:19;;;;;;;16.30;4.15;;;;;;;13.50;67.95;98698.53;4796075;29;122682;-83
2022/04/04 13:37:51;;;;;;;20.77;4.10;;;;;;;13.20;68.17;98658.03;4815788;29;126190;-83
2022/04/04 13:40:30;;;;;;;;;;;;;;;;;;;;;
2022/04/04 13:43:11;;;;;;;;;;;;;;;;;;;;;
2022/04/04 13:46:02;;;;;;;17.70;3.70;;;;;;;13.30;68.59;98694.25;4820887;28;121816;-83
2022/04/04 13:49:02;;;;;;;;;;;;;;;;;;;;;
2022/04/04 13:51:34;;;;;;;17.98;4.00;;;;;;;13.02;69.09;98649.72;4819113;28;119899;-83
2022/04/04 13:54:33;;;;;;;27.10;5.18;;;;;;;13.01;68.34;98650.97;4799839;28;120350;-83
2022/04/04 13:56:58;;;;;;;23.25;5.05;;;;;;;12.89;68.06;98634.56;4795362;28;122238;-85
2022/04/04 14:03:13;;;;;;;;;;;;;;;;;;;;;
2022/04/04 14:06:11;;;;;;;;;;;;;;;;;;;;;
2022/04/04 14:08:58;;;;;;;23.77;4.63;;;;;;;13.14;68.14;98709.63;4819231;29;121646;-83
2022/04/04 14:11:57;;;;;;;24.85;4.95;;;;;;;12.88;67.42;98660.59;4797248;29;120336;-83
2022/04/04 14:14:36;;;;;;;;;;;;;;;;;;;;;
2022/04/04 14:17:35;;;;;;;;;;;;;;;;;;;;;
2022/04/04 14:20:32;;;;;;;16.67;4.38;;;;;;;12.87;68.16;98703.13;4798104;28;123609;-85
2022/04/04 14:23:04;;;;;;;21.85;4.88;;;;;;;12.33;68.24;98622.59;4829027;28;120568;-84
2022/04/04 14:25:47;;;;;;;20.08;3.80;;;;;;;12.37;68.79;98603.81;4814230;29;119699;-83
2022/04/04 14:28:34;;;;;;;;;;;;;;;;;;;;;
2022/04/04 14:31:33;;;;;;;;;;;;;;;;;;;;;
2022/04/04 14:34:31;;;;;;;21.02;4.60;;;;;;;12.76;67.77;98659.19;4829170;28;121290;-84
2022/04/04 14:37:32;;;;;;;20.52;4.15;;;;;;;12.69;67.94;98624.00;4799141;28;120560;-85
2022/04/04 14:40:14;;;;;;;21.40;4.95;;;;;;;12.75;67.31;98635.69;4798261;28;123960;-83
2022/04/04 14:43:10;;;;;;;23.63;4.80;;;;;;;12.86;67.33;98695.38;4823805;29;119721;-85
2022/04/04 14:49:23;;;;;;;21.30;4.57;;;;;;;12.48;67.70;98633.94;4815336;28;120468;-85
2022/04/04 14:52:30;;;;;;;;;;;;;;;;;;;;;
2022/04/04 14:58:48;;;;;;;21.65;5.00;;;;;;;12.37;68.42;98643.03;4830571;28;119770;-84
2022/04/04 15:01:33;;;;;;;21.70;4.57;;;;;;;12.48;67.43;98656.69;4798882;28;122071;-84
2022/04/04 15:04:39;;;;;;;19.85;4.55;;;;;;;12.79;67.45;98706.97;4818457;29;122351;-84
2022/04/04 15:07:26;;;;;;;;;;;;;;;;;;;;;
2022/04/04 15:10:12;;;;;;;25.60;4.80;;;;;;;12.27;67.04;98642.59;4810481;28;120510;-85
2022/04/04 15:12:38;;;;;;;20.67;5.10;;;;;;;12.72;67.30;98716.50;4797811;28;119860;-85
2022/04/04 15:15:07;;;;;;;16.35;4.72;;;;;;;12.42;67.31;98682.72;4812419;29;121750;-85
2022/04/04 15:17:32;;;;;;;18.65;4.65;;;;;;;12.60;67.36;98696.59;4811416;28;120258;-85
2022/04/04 15:19:58;;;;;;;26.27;4.43;;;;;;;12.60;66.75;98718.59;4797570;29;120191;-84
2022/04/04 15:22:25;;;;;;;21.58;4.50;;;;;;;12.46;66.76;98718.94;4781493;28;120735;-85
2022/04/04 15:24:52;;;;;;;20.10;4.40;;;;;;;12.48;66.64;98743.91;4813165;29;120902;-83
2022/04/04 15:27:17;;;;;;;25.05;4.55;;;;;;;12.46;66.25;98719.69;4813863;28;120020;-84
2022/04/04 15:29:43;;;;;;;19.55;4.10;;;;;;;12.42;66.17;98730.22;4800488;29;123144;-84
2022/04/04 15:32:09;;;;;;;21.73;4.05;;;;;;;12.38;65.82;98715.25;4784435;28;119923;-83
2022/04/04 15:34:34;;;;;;;22.27;4.55;;;;;;;12.32;66.03;98728.28;4782059;29;123911;-83
2022/04/04 15:37:03;;;;;;;18.05;4.20;;;;;;;12.39;66.93;98755.97;4796211;29;122661;-84